Ncc Najd — HZAK — position and weather

sailwx.info

Track history (hours):
 
Tides and Currents Weather Stations Pressure Air Temp Water Temp Dewpoint Dewpoint Depression Visibility Wind Speed Wind Dir Waves Ship Positions

Ncc Najd

Last reported at 2018-Feb-16 08:47 UTC. Time now 2018-Feb-19 06:21 UTC.
Position N 38°51' E 122°02'.

Length 183 m; draft 7.5 m.

Type: Tanker. MMSI: 403579000.

Date/timePositionNaut miles runAvg speedWind from/ knotsBaromVisibWave heightAir tempDewpointWater temp
2018-Feb-16 08:47N 38°51' E 122°02'911.7
2018-Feb-16 08:00N 38°42' E 122°02'711.9
2018-Feb-16 07:26N 38°35' E 122°05'45110.0
2018-Feb-14 10:10N 31°06' E 122°40'1812.3
2018-Feb-14 08:43N 31°06' E 122°19'313.7
2018-Feb-14 08:30N 31°07' E 122°16'1015.1
2018-Feb-14 07:52N 31°13' E 122°07'614.8
2018-Feb-14 07:25N 31°15' E 121°59'615.2
2018-Feb-14 07:00N 31°16' E 121°52'1712.3
2018-Feb-14 05:39N 31°23' E 121°35'3 9.8
2018-Feb-14 05:22N 31°25' E 121°32'3 8.0
2018-Feb-14 04:57N 31°27' E 121°29'4 8.0
2018-Feb-14 04:30N 31°29' E 121°26'4 8.9
2018-Feb-14 04:00N 31°32' E 121°22'5 9.2
2018-Feb-14 03:30N 31°35' E 121°18'611.3
2018-Feb-14 03:00N 31°39' E 121°13'611.2
2018-Feb-14 02:30N 31°42' E 121°08'713.2
2018-Feb-14 02:00N 31°46' E 121°02'3 0.1
2018-Feb-13 00:32N 31°47' E 120°58'2 8.9
2018-Feb-13 00:22N 31°47' E 120°57'5 0.5
2018-Feb-12 14:10N 31°46' E 121°02'312.5
2018-Feb-12 13:57N 31°45' E 121°05'511.5
2018-Feb-12 13:30N 31°42' E 121°10'612.1
2018-Feb-12 13:01N 31°38' E 121°15'612.9
2018-Feb-12 12:31N 31°33' E 121°20'611.9
2018-Feb-12 12:00N 31°30' E 121°26'510.3
2018-Feb-12 11:30N 31°26' E 121°30'5 9.7
2018-Feb-12 10:59N 31°23' E 121°35'910.6
2018-Feb-12 10:08N 31°19' E 121°44'110.6
2018-Feb-12 10:00N 31°18' E 121°46'610.2
2018-Feb-12 09:22N 31°16' E 121°53'4 9.7
2018-Feb-12 09:00N 31°15' E 121°57'5 9.2
2018-Feb-12 08:30N 31°14' E 122°02'4 8.7
2018-Feb-12 08:00N 31°13' E 122°07'5 9.1
2018-Feb-12 07:30N 31°10' E 122°11'5 9.3
2018-Feb-12 07:00N 31°08' E 122°16'510.9
2018-Feb-12 06:30N 31°06' E 122°22'610.8
2018-Feb-12 05:59N 31°07' E 122°28'  
2018-Feb-09 14:30N 25°21' E 120°45'16212.5
2018-Feb-09 01:30N 22°45' E 119°57'713.5
2018-Feb-09 01:00N 22°39' E 120°00'1812.2
2018-Feb-08 23:30N 22°33' E 120°19'2 0.1
2018-Feb-08 01:28N 22°35' E 120°18'0 0.0
2018-Feb-08 00:58N 22°35' E 120°18'0 0.1
2018-Feb-08 00:30N 22°35' E 120°18'2 4.1
2018-Feb-08 00:00N 22°37' E 120°17'1 2.4
2018-Feb-07 23:30N 22°36' E 120°18'0 0.2
2018-Feb-07 23:00N 22°36' E 120°18'0 0.0
2018-Feb-07 22:30N 22°36' E 120°18'0 0.0
2018-Feb-07 21:57N 22°36' E 120°18'0 0.0
2018-Feb-07 21:30N 22°36' E 120°18'0 0.0
2018-Feb-07 09:30N 22°36' E 120°18'0 0.0
2018-Feb-07 09:00N 22°36' E 120°18'0 0.0
2018-Feb-07 08:30N 22°36' E 120°18'0 0.0
2018-Feb-07 07:57N 22°36' E 120°18'0 0.0
2018-Feb-07 07:30N 22°36' E 120°18'0 0.0
2018-Feb-07 07:00N 22°36' E 120°18'0 0.0
2018-Feb-07 06:30N 22°36' E 120°18'0 0.0
2018-Feb-07 06:00N 22°36' E 120°18'0 0.0
2018-Feb-07 05:30N 22°36' E 120°18'0 0.0
2018-Feb-07 05:00N 22°36' E 120°18'0 0.0
2018-Feb-07 04:30N 22°36' E 120°18'0 0.0
2018-Feb-07 03:57N 22°36' E 120°18'0 0.0
2018-Feb-07 03:30N 22°36' E 120°18'0 0.0
2018-Feb-07 03:00N 22°36' E 120°18'0 0.0
2018-Feb-07 02:30N 22°36' E 120°18'0 0.0
2018-Feb-07 02:00N 22°36' E 120°18'0 0.0
2018-Feb-07 01:21N 22°36' E 120°18'0 0.0
2018-Feb-07 01:00N 22°36' E 120°18'0 0.0
2018-Feb-07 00:30N 22°36' E 120°18'0 0.0
2018-Feb-07 00:00N 22°36' E 120°18'0 0.1
2018-Feb-06 23:30N 22°36' E 120°18'7 7.5
2018-Feb-06 22:30N 22°38' E 120°10'4 7.4
2018-Feb-06 22:00N 22°39' E 120°06'3 6.3
2018-Feb-06 21:30N 22°40' E 120°03'1 1.6
2018-Feb-06 21:00N 22°40' E 120°04'1 1.9
2018-Feb-06 20:30N 22°40' E 120°05'2 4.6
2018-Feb-06 20:00N 22°40' E 120°02'4 8.8
2018-Feb-06 19:30N 22°37' E 119°58'4 8.6
2018-Feb-06 19:00N 22°35' E 119°55'2 0.8
2018-Feb-06 16:58N 22°34' E 119°56'1 2.2
2018-Feb-06 16:30N 22°34' E 119°57'1 2.4
2018-Feb-06 16:00N 22°35' E 119°59'1 2.2
2018-Feb-06 15:30N 22°35' E 119°60'1 1.8
2018-Feb-06 14:57N 22°35' E 120°01'1 1.5
2018-Feb-06 14:30N 22°35' E 120°02'1 1.6
2018-Feb-06 14:00N 22°35' E 120°02'1 1.6
2018-Feb-06 13:30N 22°36' E 120°03'1 1.6
2018-Feb-06 13:00N 22°36' E 120°04'1 1.8
2018-Feb-06 12:30N 22°37' E 120°05'3 2.8
2018-Feb-06 11:30N 22°39' E 120°07'612.2
2018-Feb-06 11:00N 22°43' E 120°02'612.4
2018-Feb-06 10:29N 22°47' E 119°57'612.9
2018-Feb-06 10:00N 22°53' E 119°54'714.0
2018-Feb-06 09:30N 23°00' E 119°54'814.2
2018-Feb-06 08:57N 23°08' E 119°54'  
Track history (hours):
 
Tides and Currents Weather Stations Pressure Air Temp Water Temp Dewpoint Dewpoint Depression Visibility Wind Speed Wind Dir Waves Ship Positions

Ncc Najd

Last reported at 2018-Feb-16 08:47 UTC. Time now 2018-Feb-19 06:21 UTC.
Position N 38°51' E 122°02'.

Length 183 m; draft 7.5 m.

Type: Tanker. MMSI: 403579000.

Date/timePositionNaut miles runAvg speedWind from/ knotsBaromVisibWave heightAir tempDewpointWater temp
2018-Feb-16 08:47N 38°51' E 122°02'911.7
2018-Feb-16 08:00N 38°42' E 122°02'711.9
2018-Feb-16 07:26N 38°35' E 122°05'45110.0
2018-Feb-14 10:10N 31°06' E 122°40'1812.3
2018-Feb-14 08:43N 31°06' E 122°19'313.7
2018-Feb-14 08:30N 31°07' E 122°16'1015.1
2018-Feb-14 07:52N 31°13' E 122°07'614.8
2018-Feb-14 07:25N 31°15' E 121°59'615.2
2018-Feb-14 07:00N 31°16' E 121°52'1712.3
2018-Feb-14 05:39N 31°23' E 121°35'3 9.8
2018-Feb-14 05:22N 31°25' E 121°32'3 8.0
2018-Feb-14 04:57N 31°27' E 121°29'4 8.0
2018-Feb-14 04:30N 31°29' E 121°26'4 8.9
2018-Feb-14 04:00N 31°32' E 121°22'5 9.2
2018-Feb-14 03:30N 31°35' E 121°18'611.3
2018-Feb-14 03:00N 31°39' E 121°13'611.2
2018-Feb-14 02:30N 31°42' E 121°08'713.2
2018-Feb-14 02:00N 31°46' E 121°02'3 0.1
2018-Feb-13 00:32N 31°47' E 120°58'2 8.9
2018-Feb-13 00:22N 31°47' E 120°57'5 0.5
2018-Feb-12 14:10N 31°46' E 121°02'312.5
2018-Feb-12 13:57N 31°45' E 121°05'511.5
2018-Feb-12 13:30N 31°42' E 121°10'612.1
2018-Feb-12 13:01N 31°38' E 121°15'612.9
2018-Feb-12 12:31N 31°33' E 121°20'611.9
2018-Feb-12 12:00N 31°30' E 121°26'510.3
2018-Feb-12 11:30N 31°26' E 121°30'5 9.7
2018-Feb-12 10:59N 31°23' E 121°35'910.6
2018-Feb-12 10:08N 31°19' E 121°44'110.6
2018-Feb-12 10:00N 31°18' E 121°46'610.2
2018-Feb-12 09:22N 31°16' E 121°53'4 9.7
2018-Feb-12 09:00N 31°15' E 121°57'5 9.2
2018-Feb-12 08:30N 31°14' E 122°02'4 8.7
2018-Feb-12 08:00N 31°13' E 122°07'5 9.1
2018-Feb-12 07:30N 31°10' E 122°11'5 9.3
2018-Feb-12 07:00N 31°08' E 122°16'510.9
2018-Feb-12 06:30N 31°06' E 122°22'610.8
2018-Feb-12 05:59N 31°07' E 122°28'  
2018-Feb-09 14:30N 25°21' E 120°45'16212.5
2018-Feb-09 01:30N 22°45' E 119°57'713.5
2018-Feb-09 01:00N 22°39' E 120°00'1812.2
2018-Feb-08 23:30N 22°33' E 120°19'2 0.1
2018-Feb-08 01:28N 22°35' E 120°18'0 0.0
2018-Feb-08 00:58N 22°35' E 120°18'0 0.1
2018-Feb-08 00:30N 22°35' E 120°18'2 4.1
2018-Feb-08 00:00N 22°37' E 120°17'1 2.4
2018-Feb-07 23:30N 22°36' E 120°18'0 0.2
2018-Feb-07 23:00N 22°36' E 120°18'0 0.0
2018-Feb-07 22:30N 22°36' E 120°18'0 0.0
2018-Feb-07 21:57N 22°36' E 120°18'0 0.0
2018-Feb-07 21:30N 22°36' E 120°18'0 0.0
2018-Feb-07 09:30N 22°36' E 120°18'0 0.0
2018-Feb-07 09:00N 22°36' E 120°18'0 0.0
2018-Feb-07 08:30N 22°36' E 120°18'0 0.0
2018-Feb-07 07:57N 22°36' E 120°18'0 0.0
2018-Feb-07 07:30N 22°36' E 120°18'0 0.0
2018-Feb-07 07:00N 22°36' E 120°18'0 0.0
2018-Feb-07 06:30N 22°36' E 120°18'0 0.0
2018-Feb-07 06:00N 22°36' E 120°18'0 0.0
2018-Feb-07 05:30N 22°36' E 120°18'0 0.0
2018-Feb-07 05:00N 22°36' E 120°18'0 0.0
2018-Feb-07 04:30N 22°36' E 120°18'0 0.0
2018-Feb-07 03:57N 22°36' E 120°18'0 0.0
2018-Feb-07 03:30N 22°36' E 120°18'0 0.0
2018-Feb-07 03:00N 22°36' E 120°18'0 0.0
2018-Feb-07 02:30N 22°36' E 120°18'0 0.0
2018-Feb-07 02:00N 22°36' E 120°18'0 0.0
2018-Feb-07 01:21N 22°36' E 120°18'0 0.0
2018-Feb-07 01:00N 22°36' E 120°18'0 0.0
2018-Feb-07 00:30N 22°36' E 120°18'0 0.0
2018-Feb-07 00:00N 22°36' E 120°18'0 0.1
2018-Feb-06 23:30N 22°36' E 120°18'7 7.5
2018-Feb-06 22:30N 22°38' E 120°10'4 7.4
2018-Feb-06 22:00N 22°39' E 120°06'3 6.3
2018-Feb-06 21:30N 22°40' E 120°03'1 1.6
2018-Feb-06 21:00N 22°40' E 120°04'1 1.9
2018-Feb-06 20:30N 22°40' E 120°05'2 4.6
2018-Feb-06 20:00N 22°40' E 120°02'4 8.8
2018-Feb-06 19:30N 22°37' E 119°58'4 8.6
2018-Feb-06 19:00N 22°35' E 119°55'2 0.8
2018-Feb-06 16:58N 22°34' E 119°56'1 2.2
2018-Feb-06 16:30N 22°34' E 119°57'1 2.4
2018-Feb-06 16:00N 22°35' E 119°59'1 2.2
2018-Feb-06 15:30N 22°35' E 119°60'1 1.8
2018-Feb-06 14:57N 22°35' E 120°01'1 1.5
2018-Feb-06 14:30N 22°35' E 120°02'1 1.6
2018-Feb-06 14:00N 22°35' E 120°02'1 1.6
2018-Feb-06 13:30N 22°36' E 120°03'1 1.6
2018-Feb-06 13:00N 22°36' E 120°04'1 1.8
2018-Feb-06 12:30N 22°37' E 120°05'3 2.8
2018-Feb-06 11:30N 22°39' E 120°07'612.2
2018-Feb-06 11:00N 22°43' E 120°02'612.4
2018-Feb-06 10:29N 22°47' E 119°57'612.9
2018-Feb-06 10:00N 22°53' E 119°54'714.0
2018-Feb-06 09:30N 23°00' E 119°54'814.2
2018-Feb-06 08:57N 23°08' E 119°54'  

Dump ship's entire track history